sensor_id;sensor_type;location;lat;lon;timestamp;pressure;altitude;pressure_sealevel;temperature;humidity
9325;BME280;4701;51.566;6.776;2022-09-21T05:02:01;102335.44;;;5.75;100.00
9325;BME280;4701;51.566;6.776;2022-09-21T05:04:03;102341.22;;;5.71;100.00
9325;BME280;4701;51.566;6.776;2022-09-21T05:06:07;102325.66;;;5.74;100.00
9325;BME280;4701;51.566;6.776;2022-09-21T05:08:12;102330.03;;;5.75;100.00
9325;BME280;4701;51.566;6.776;2022-09-21T05:10:14;102340.66;;;5.76;100.00
9325;BME280;4701;51.566;6.776;2022-09-21T05:12:15;102331.28;;;5.79;100.00
9325;BME280;4701;51.566;6.776;2022-09-21T05:14:17;102335.66;;;5.80;100.00
9325;BME280;4701;51.566;6.776;2022-09-21T05:16:19;102335.47;;;5.81;100.00
9325;BME280;4701;51.566;6.776;2022-09-21T05:18:22;102344.25;;;5.83;100.00
9325;BME280;4701;51.566;6.776;2022-09-21T05:20:24;102341.53;;;5.83;100.00
9325;BME280;4701;51.566;6.776;2022-09-21T05:22:26;102344.44;;;5.82;99.88
9325;BME280;4701;51.566;6.776;2022-09-21T05:24:28;102347.75;;;5.77;99.69
9325;BME280;4701;51.566;6.776;2022-09-21T05:26:30;102346.03;;;5.69;99.56
9325;BME280;4701;51.566;6.776;2022-09-21T05:28:32;102343.31;;;5.69;99.43
9325;BME280;4701;51.566;6.776;2022-09-21T05:30:34;102349.94;;;5.67;99.63
9325;BME280;4701;51.566;6.776;2022-09-21T05:32:43;102355.53;;;5.65;99.48
9325;BME280;4701;51.566;6.776;2022-09-21T05:34:55;102358.25;;;5.65;100.00
9325;BME280;4701;51.566;6.776;2022-09-21T05:37:05;102349.94;;;5.67;100.00
9325;BME280;4701;51.566;6.776;2022-09-21T05:39:10;102364.31;;;5.67;100.00
9325;BME280;4701;51.566;6.776;2022-09-21T05:41:12;102355.16;;;5.68;100.00
9325;BME280;4701;51.566;6.776;2022-09-21T05:43:15;102354.94;;;5.70;100.00
9325;BME280;4701;51.566;6.776;2022-09-21T05:45:18;102357.47;;;5.71;100.00
9325;BME280;4701;51.566;6.776;2022-09-21T05:47:28;102358.09;;;5.74;100.00
9325;BME280;4701;51.566;6.776;2022-09-21T05:49:45;102359.13;;;5.72;100.00
9325;BME280;4701;51.566;6.776;2022-09-21T05:52:02;102363.91;;;5.70;100.00
9325;BME280;4701;51.566;6.776;2022-09-21T05:54:11;102360.16;;;5.71;99.75
9325;BME280;4701;51.566;6.776;2022-09-21T05:56:27;102364.34;;;5.74;100.00
9325;BME280;4701;51.566;6.776;2022-09-21T05:58:35;102365.84;;;5.77;100.00
9325;BME280;4701;51.566;6.776;2022-09-21T06:00:44;102372.72;;;5.79;99.89
9325;BME280;4701;51.566;6.776;2022-09-21T06:03:09;102367.94;;;5.81;99.51
9325;BME280;4701;51.566;6.776;2022-09-21T06:05:23;102372.16;;;5.84;99.58
9325;BME280;4701;51.566;6.776;2022-09-21T06:07:26;102369.25;;;5.85;99.83
9325;BME280;4701;51.566;6.776;2022-09-21T06:09:28;102377.00;;;5.88;99.88
9325;BME280;4701;51.566;6.776;2022-09-21T06:11:30;102374.47;;;5.87;99.70
9325;BME280;4701;51.566;6.776;2022-09-21T06:13:32;102381.84;;;5.93;99.85
9325;BME280;4701;51.566;6.776;2022-09-21T06:15:35;102383.31;;;5.95;100.00
9325;BME280;4701;51.566;6.776;2022-09-21T06:17:37;102389.16;;;5.99;100.00
9325;BME280;4701;51.566;6.776;2022-09-21T06:19:39;102389.84;;;6.07;100.00
9325;BME280;4701;51.566;6.776;2022-09-21T06:21:41;102394.88;;;6.11;100.00
9325;BME280;4701;51.566;6.776;2022-09-21T06:23:45;102395.94;;;6.16;100.00
9325;BME280;4701;51.566;6.776;2022-09-21T06:25:50;102389.13;;;6.20;100.00
9325;BME280;4701;51.566;6.776;2022-09-21T06:27:52;102388.69;;;6.23;100.00
9325;BME280;4701;51.566;6.776;2022-09-21T06:29:53;102390.22;;;6.32;100.00
9325;BME280;4701;51.566;6.776;2022-09-21T06:31:55;102387.22;;;6.55;100.00
9325;BME280;4701;51.566;6.776;2022-09-21T06:33:58;102389.19;;;6.68;100.00
9325;BME280;4701;51.566;6.776;2022-09-21T06:35:59;102393.00;;;6.80;100.00
9325;BME280;4701;51.566;6.776;2022-09-21T06:38:03;102394.53;;;7.02;100.00
9325;BME280;4701;51.566;6.776;2022-09-21T06:40:08;102393.34;;;7.25;100.00
9325;BME280;4701;51.566;6.776;2022-09-21T06:42:10;102385.66;;;7.41;100.00
9325;BME280;4701;51.566;6.776;2022-09-21T06:44:12;102390.31;;;7.60;100.00
9325;BME280;4701;51.566;6.776;2022-09-21T06:46:14;102387.81;;;7.72;100.00
9325;BME280;4701;51.566;6.776;2022-09-21T06:48:16;102394.28;;;7.84;100.00
9325;BME280;4701;51.566;6.776;2022-09-21T06:50:18;102391.38;;;7.86;100.00
9325;BME280;4701;51.566;6.776;2022-09-21T06:52:19;102392.63;;;7.90;100.00
9325;BME280;4701;51.566;6.776;2022-09-21T06:54:21;102394.06;;;7.92;100.00
9325;BME280;4701;51.566;6.776;2022-09-21T06:56:25;102396.38;;;7.95;100.00
9325;BME280;4701;51.566;6.776;2022-09-21T06:58:27;102387.81;;;7.98;100.00
9325;BME280;4701;51.566;6.776;2022-09-21T07:00:30;102395.13;;;8.05;100.00
9325;BME280;4701;51.566;6.776;2022-09-21T07:02:32;102393.88;;;8.07;100.00
9325;BME280;4701;51.566;6.776;2022-09-21T07:04:34;102392.00;;;8.08;100.00
9325;BME280;4701;51.566;6.776;2022-09-21T07:06:36;102396.59;;;8.14;100.00
9325;BME280;4701;51.566;6.776;2022-09-21T07:08:38;102398.44;;;8.20;100.00
9325;BME280;4701;51.566;6.776;2022-09-21T07:10:40;102392.78;;;8.28;100.00
9325;BME280;4701;51.566;6.776;2022-09-21T07:12:43;102392.59;;;8.36;100.00
9325;BME280;4701;51.566;6.776;2022-09-21T07:14:45;102394.47;;;8.42;100.00
9325;BME280;4701;51.566;6.776;2022-09-21T07:16:47;102394.28;;;8.50;100.00
9325;BME280;4701;51.566;6.776;2022-09-21T07:18:49;102401.56;;;8.56;100.00
9325;BME280;4701;51.566;6.776;2022-09-21T07:20:51;102397.56;;;8.65;100.00
9325;BME280;4701;51.566;6.776;2022-09-21T07:22:54;102398.78;;;8.76;100.00
9325;BME280;4701;51.566;6.776;2022-09-21T07:24:57;102390.81;;;8.81;100.00
9325;BME280;4701;51.566;6.776;2022-09-21T07:26:59;102387.44;;;8.92;100.00
9325;BME280;4701;51.566;6.776;2022-09-21T07:29:02;102393.00;;;9.04;100.00
9325;BME280;4701;51.566;6.776;2022-09-21T07:31:09;102389.63;;;9.15;100.00
9325;BME280;4701;51.566;6.776;2022-09-21T07:33:11;102393.75;;;9.24;100.00
9325;BME280;4701;51.566;6.776;2022-09-21T07:35:13;102390.94;;;9.37;100.00
9325;BME280;4701;51.566;6.776;2022-09-21T07:37:14;102385.66;;;9.49;100.00
9325;BME280;4701;51.566;6.776;2022-09-21T07:39:16;102387.44;;;9.62;100.00
9325;BME280;4701;51.566;6.776;2022-09-21T07:41:18;102394.91;;;9.73;100.00
9325;BME280;4701;51.566;6.776;2022-09-21T07:43:20;102386.84;;;9.84;100.00
9325;BME280;4701;51.566;6.776;2022-09-21T07:45:23;102380.91;;;9.94;100.00
9325;BME280;4701;51.566;6.776;2022-09-21T07:47:25;102376.59;;;10.05;100.00
9325;BME280;4701;51.566;6.776;2022-09-21T07:49:27;102378.59;;;10.16;100.00
9325;BME280;4701;51.566;6.776;2022-09-21T07:51:29;102376.25;;;10.26;100.00
9325;BME280;4701;51.566;6.776;2022-09-21T07:53:31;102380.72;;;10.39;100.00
9325;BME280;4701;51.566;6.776;2022-09-21T07:55:33;102384.59;;;10.49;100.00
9325;BME280;4701;51.566;6.776;2022-09-21T07:57:35;102376.94;;;10.58;100.00
9325;BME280;4701;51.566;6.776;2022-09-21T07:59:54;102378.00;;;10.75;100.00
9325;BME280;4701;51.566;6.776;2022-09-21T08:01:59;102379.50;;;10.89;100.00
9325;BME280;4701;51.566;6.776;2022-09-21T08:04:02;102372.66;;;10.98;99.62
9325;BME280;4701;51.566;6.776;2022-09-21T08:06:04;102374.84;;;11.08;98.72
9325;BME280;4701;51.566;6.776;2022-09-21T08:08:06;102376.44;;;11.16;97.95
9325;BME280;4701;51.566;6.776;2022-09-21T08:10:08;102375.03;;;11.25;97.57
9325;BME280;4701;51.566;6.776;2022-09-21T08:12:12;102377.44;;;11.33;97.28
9325;BME280;4701;51.566;6.776;2022-09-21T08:14:14;102380.91;;;11.40;96.48
9325;BME280;4701;51.566;6.776;2022-09-21T08:16:18;102376.19;;;11.47;95.85
9325;BME280;4701;51.566;6.776;2022-09-21T08:18:22;102381.34;;;11.55;95.44
9325;BME280;4701;51.566;6.776;2022-09-21T08:20:24;102376.09;;;11.65;94.61
9325;BME280;4701;51.566;6.776;2022-09-21T08:22:25;102382.94;;;11.74;94.26
9325;BME280;4701;51.566;6.776;2022-09-21T08:24:27;102381.41;;;11.79;93.99
9325;BME280;4701;51.566;6.776;2022-09-21T08:26:30;102383.78;;;11.87;93.48
9325;BME280;4701;51.566;6.776;2022-09-21T08:28:33;102386.41;;;11.93;92.74
9325;BME280;4701;51.566;6.776;2022-09-21T08:30:35;102391.19;;;11.98;91.90
9325;BME280;4701;51.566;6.776;2022-09-21T08:32:37;102390.00;;;12.05;91.77
9325;BME280;4701;51.566;6.776;2022-09-21T08:34:40;102381.91;;;12.10;89.90
9325;BME280;4701;51.566;6.776;2022-09-21T08:36:42;102388.56;;;12.15;88.44
9325;BME280;4701;51.566;6.776;2022-09-21T08:38:45;102386.91;;;12.25;88.14
9325;BME280;4701;51.566;6.776;2022-09-21T08:40:48;102379.16;;;12.34;87.96
9325;BME280;4701;51.566;6.776;2022-09-21T08:42:56;102382.13;;;12.44;88.38
9325;BME280;4701;51.566;6.776;2022-09-21T08:45:02;102380.94;;;12.51;88.27
9325;BME280;4701;51.566;6.776;2022-09-21T08:47:12;102380.22;;;12.56;87.42
9325;BME280;4701;51.566;6.776;2022-09-21T08:49:18;102381.16;;;12.62;87.57
9325;BME280;4701;51.566;6.776;2022-09-21T08:51:25;102379.38;;;12.67;87.43
9325;BME280;4701;51.566;6.776;2022-09-21T08:53:31;102381.63;;;12.70;85.75
9325;BME280;4701;51.566;6.776;2022-09-21T08:55:33;102387.47;;;12.74;85.62
9325;BME280;4701;51.566;6.776;2022-09-21T08:57:35;102386.72;;;12.78;84.97
9325;BME280;4701;51.566;6.776;2022-09-21T08:59:40;102381.69;;;12.87;84.07
9325;BME280;4701;51.566;6.776;2022-09-21T09:01:52;102386.78;;;12.95;82.55
9325;BME280;4701;51.566;6.776;2022-09-21T09:04:06;102389.50;;;13.07;82.00
9325;BME280;4701;51.566;6.776;2022-09-21T09:06:15;102393.31;;;13.17;80.91
9325;BME280;4701;51.566;6.776;2022-09-21T09:08:32;102395.31;;;13.22;80.28
9325;BME280;4701;51.566;6.776;2022-09-21T09:10:39;102387.78;;;13.29;80.14
9325;BME280;4701;51.566;6.776;2022-09-21T09:12:51;102391.47;;;13.35;80.06
9325;BME280;4701;51.566;6.776;2022-09-21T09:15:13;102384.16;;;13.40;80.14
9325;BME280;4701;51.566;6.776;2022-09-21T09:17:26;102393.81;;;13.43;77.82
9325;BME280;4701;51.566;6.776;2022-09-21T09:19:34;102391.63;;;13.45;77.61
9325;BME280;4701;51.566;6.776;2022-09-21T09:21:39;102392.56;;;13.50;78.51
9325;BME280;4701;51.566;6.776;2022-09-21T09:23:46;102394.78;;;13.53;77.55
9325;BME280;4701;51.566;6.776;2022-09-21T09:25:53;102394.06;;;13.58;77.44
9325;BME280;4701;51.566;6.776;2022-09-21T09:27:58;102387.00;;;13.62;76.32
9325;BME280;4701;51.566;6.776;2022-09-21T09:30:14;102392.47;;;13.62;73.04
9325;BME280;4701;51.566;6.776;2022-09-21T09:32:17;102397.84;;;13.69;71.79
9325;BME280;4701;51.566;6.776;2022-09-21T09:34:22;102395.41;;;13.72;69.77
9325;BME280;4701;51.566;6.776;2022-09-21T09:36:28;102386.47;;;13.77;70.60
9325;BME280;4701;51.566;6.776;2022-09-21T09:38:36;102393.69;;;13.83;71.03
9325;BME280;4701;51.566;6.776;2022-09-21T09:40:56;102388.03;;;13.89;68.71
9325;BME280;4701;51.566;6.776;2022-09-21T09:43:04;102385.47;;;13.99;67.86
9325;BME280;4701;51.566;6.776;2022-09-21T09:45:19;102385.53;;;14.05;68.58
9325;BME280;4701;51.566;6.776;2022-09-21T09:47:35;102387.19;;;14.06;68.25
9325;BME280;4701;51.566;6.776;2022-09-21T09:49:58;102389.44;;;14.09;66.83
9325;BME280;4701;51.566;6.776;2022-09-21T09:52:03;102388.44;;;14.15;67.21
9325;BME280;4701;51.566;6.776;2022-09-21T09:54:12;102394.31;;;14.23;67.64
9325;BME280;4701;51.566;6.776;2022-09-21T09:56:17;102397.22;;;14.33;66.74
9325;BME280;4701;51.566;6.776;2022-09-21T09:58:24;102385.84;;;14.42;67.57
9325;BME280;4701;51.566;6.776;2022-09-21T10:00:30;102381.34;;;14.52;66.82
9325;BME280;4701;51.566;6.776;2022-09-21T10:02:33;102381.06;;;14.70;66.80
9325;BME280;4701;51.566;6.776;2022-09-21T10:04:54;102378.56;;;14.91;66.62
9325;BME280;4701;51.566;6.776;2022-09-21T10:07:03;102380.78;;;14.94;66.46
9325;BME280;4701;51.566;6.776;2022-09-21T10:09:21;102385.41;;;14.88;65.93
9325;BME280;4701;51.566;6.776;2022-09-21T10:11:33;102379.34;;;14.86;65.86
9325;BME280;4701;51.566;6.776;2022-09-21T10:13:37;102384.81;;;14.86;66.73
9325;BME280;4701;51.566;6.776;2022-09-21T10:15:42;102381.81;;;14.88;66.78
9325;BME280;4701;51.566;6.776;2022-09-21T10:17:46;102387.31;;;14.88;67.55
9325;BME280;4701;51.566;6.776;2022-09-21T10:19:48;102385.31;;;14.83;67.57
9325;BME280;4701;51.566;6.776;2022-09-21T10:21:55;102380.91;;;14.82;67.61
9325;BME280;4701;51.566;6.776;2022-09-21T10:23:59;102381.94;;;14.76;67.84
9325;BME280;4701;51.566;6.776;2022-09-21T10:26:04;102380.84;;;14.77;66.95
9325;BME280;4701;51.566;6.776;2022-09-21T10:28:11;102387.75;;;14.80;66.50
9325;BME280;4701;51.566;6.776;2022-09-21T10:30:36;102382.19;;;14.74;65.29
9325;BME280;4701;51.566;6.776;2022-09-21T10:32:53;102392.88;;;14.71;65.10
9325;BME280;4701;51.566;6.776;2022-09-21T10:35:13;102387.53;;;14.64;64.59
9325;BME280;4701;51.566;6.776;2022-09-21T10:37:24;102381.75;;;14.61;64.61
9325;BME280;4701;51.566;6.776;2022-09-21T10:39:28;102383.13;;;14.63;64.46
9325;BME280;4701;51.566;6.776;2022-09-21T10:41:30;102381.22;;;14.64;64.13
9325;BME280;4701;51.566;6.776;2022-09-21T10:43:38;102381.22;;;14.64;63.86
9325;BME280;4701;51.566;6.776;2022-09-21T10:45:52;102375.72;;;14.64;63.78
9325;BME280;4701;51.566;6.776;2022-09-21T10:47:56;102372.44;;;14.62;63.87
9325;BME280;4701;51.566;6.776;2022-09-21T10:50:01;102374.34;;;14.61;64.20
9325;BME280;4701;51.566;6.776;2022-09-21T10:52:04;102380.09;;;14.60;64.02
9325;BME280;4701;51.566;6.776;2022-09-21T10:54:07;102373.44;;;14.56;63.92
9325;BME280;4701;51.566;6.776;2022-09-21T10:56:15;102372.59;;;14.55;62.79
9325;BME280;4701;51.566;6.776;2022-09-21T10:58:18;102375.03;;;14.52;62.67
9325;BME280;4701;51.566;6.776;2022-09-21T11:00:40;102372.78;;;14.49;63.95
9325;BME280;4701;51.566;6.776;2022-09-21T11:02:43;102371.72;;;14.50;64.64
9325;BME280;4701;51.566;6.776;2022-09-21T11:04:48;102372.28;;;14.52;62.86
9325;BME280;4701;51.566;6.776;2022-09-21T11:06:53;102367.09;;;14.55;61.06
9325;BME280;4701;51.566;6.776;2022-09-21T11:09:02;102364.69;;;14.59;61.75
9325;BME280;4701;51.566;6.776;2022-09-21T11:11:23;102376.56;;;14.64;60.01
9325;BME280;4701;51.566;6.776;2022-09-21T11:13:29;102369.25;;;14.70;59.14
9325;BME280;4701;51.566;6.776;2022-09-21T11:15:39;102365.41;;;14.71;58.07
9325;BME280;4701;51.566;6.776;2022-09-21T11:17:45;102367.00;;;14.67;57.75
9325;BME280;4701;51.566;6.776;2022-09-21T11:19:54;102365.03;;;14.62;58.68
9325;BME280;4701;51.566;6.776;2022-09-21T11:22:03;102360.09;;;14.64;61.65
9325;BME280;4701;51.566;6.776;2022-09-21T11:24:12;102358.44;;;14.63;59.65
9325;BME280;4701;51.566;6.776;2022-09-21T11:26:24;102360.94;;;14.65;58.55
9325;BME280;4701;51.566;6.776;2022-09-21T11:28:29;102363.50;;;14.71;57.55
9325;BME280;4701;51.566;6.776;2022-09-21T11:30:47;102361.31;;;14.73;54.42
9325;BME280;4701;51.566;6.776;2022-09-21T11:33:04;102356.16;;;14.77;54.06
9325;BME280;4701;51.566;6.776;2022-09-21T11:35:28;102359.78;;;14.83;55.05
9325;BME280;4701;51.566;6.776;2022-09-21T11:37:46;102357.13;;;14.88;54.57
9325;BME280;4701;51.566;6.776;2022-09-21T11:40:06;102354.41;;;14.93;54.54
9325;BME280;4701;51.566;6.776;2022-09-21T11:42:19;102347.91;;;14.99;55.01
9325;BME280;4701;51.566;6.776;2022-09-21T11:44:42;102351.25;;;15.06;56.59
9325;BME280;4701;51.566;6.776;2022-09-21T11:46:58;102353.00;;;15.12;57.90
9325;BME280;4701;51.566;6.776;2022-09-21T11:49:20;102342.88;;;15.18;57.45
9325;BME280;4701;51.566;6.776;2022-09-21T11:51:39;102347.91;;;15.26;55.95
9325;BME280;4701;51.566;6.776;2022-09-21T11:54:13;102342.28;;;15.37;56.00
9325;BME280;4701;51.566;6.776;2022-09-21T11:56:33;102332.63;;;15.62;55.02
9325;BME280;4701;51.566;6.776;2022-09-21T11:58:49;102336.69;;;15.86;52.39
9325;BME280;4701;51.566;6.776;2022-09-21T12:00:59;102333.00;;;16.07;51.54
9325;BME280;4701;51.566;6.776;2022-09-21T12:05:47;102334.84;;;16.44;49.24
9325;BME280;4701;51.566;6.776;2022-09-21T12:10:41;102328.88;;;16.57;48.67
9325;BME280;4701;51.566;6.776;2022-09-21T12:12:50;102325.53;;;16.50;50.19
9325;BME280;4701;51.566;6.776;2022-09-21T12:15:01;102330.16;;;16.44;49.73
9325;BME280;4701;51.566;6.776;2022-09-21T12:17:08;102327.06;;;16.31;50.39
9325;BME280;4701;51.566;6.776;2022-09-21T12:19:21;102320.41;;;16.21;50.17
9325;BME280;4701;51.566;6.776;2022-09-21T12:21:26;102322.88;;;16.18;50.87
9325;BME280;4701;51.566;6.776;2022-09-21T12:23:36;102318.41;;;16.07;48.12
9325;BME280;4701;51.566;6.776;2022-09-21T12:25:43;102316.50;;;16.12;49.52
9325;BME280;4701;51.566;6.776;2022-09-21T12:27:49;102313.50;;;16.19;48.53
9325;BME280;4701;51.566;6.776;2022-09-21T12:29:54;102318.19;;;16.18;49.28
9325;BME280;4701;51.566;6.776;2022-09-21T12:32:03;102315.19;;;16.25;49.97
9325;BME280;4701;51.566;6.776;2022-09-21T12:34:14;102316.84;;;16.26;51.33
9325;BME280;4701;51.566;6.776;2022-09-21T12:36:20;102311.13;;;16.33;51.87
9325;BME280;4701;51.566;6.776;2022-09-21T12:38:29;102318.38;;;16.49;51.55
9325;BME280;4701;51.566;6.776;2022-09-21T12:40:37;102312.47;;;16.87;51.32
9325;BME280;4701;51.566;6.776;2022-09-21T12:42:42;102313.94;;;17.30;50.05
9325;BME280;4701;51.566;6.776;2022-09-21T12:44:50;102311.78;;;17.63;48.97
9325;BME280;4701;51.566;6.776;2022-09-21T12:46:57;102308.72;;;18.05;49.43
9325;BME280;4701;51.566;6.776;2022-09-21T12:49:12;102302.94;;;18.01;46.11
9325;BME280;4701;51.566;6.776;2022-09-21T12:51:19;102301.03;;;17.92;46.50
9325;BME280;4701;51.566;6.776;2022-09-21T12:53:26;102306.22;;;18.13;47.04
9325;BME280;4701;51.566;6.776;2022-09-21T12:55:41;102293.44;;;18.38;47.67
9325;BME280;4701;51.566;6.776;2022-09-21T12:57:49;102297.84;;;18.44;46.65
9325;BME280;4701;51.566;6.776;2022-09-21T12:59:57;102284.97;;;18.19;46.63
9325;BME280;4701;51.566;6.776;2022-09-21T13:02:15;102285.00;;;18.09;48.58
9325;BME280;4701;51.566;6.776;2022-09-21T13:04:35;102283.34;;;18.03;49.25
9325;BME280;4701;51.566;6.776;2022-09-21T13:07:01;102275.09;;;17.88;50.55
9325;BME280;4701;51.566;6.776;2022-09-21T13:09:15;102274.00;;;17.94;50.38
9325;BME280;4701;51.566;6.776;2022-09-21T13:11:19;102288.63;;;17.79;50.87
9325;BME280;4701;51.566;6.776;2022-09-21T13:13:26;102283.94;;;17.74;49.37
9325;BME280;4701;51.566;6.776;2022-09-21T13:15:30;102281.72;;;17.56;48.00
9325;BME280;4701;51.566;6.776;2022-09-21T13:17:33;102280.06;;;17.45;49.20
9325;BME280;4701;51.566;6.776;2022-09-21T13:19:35;102268.47;;;17.28;50.18
9325;BME280;4701;51.566;6.776;2022-09-21T13:21:37;102280.59;;;17.22;51.23
9325;BME280;4701;51.566;6.776;2022-09-21T13:23:42;102274.81;;;17.13;50.99
9325;BME280;4701;51.566;6.776;2022-09-21T13:25:47;102276.16;;;17.06;51.30
9325;BME280;4701;51.566;6.776;2022-09-21T13:27:58;102283.31;;;16.96;50.30
9325;BME280;4701;51.566;6.776;2022-09-21T13:30:29;102279.16;;;16.89;51.95
9325;BME280;4701;51.566;6.776;2022-09-21T13:32:50;102277.25;;;17.05;51.29
9325;BME280;4701;51.566;6.776;2022-09-21T13:34:52;102270.41;;;17.07;48.95
9325;BME280;4701;51.566;6.776;2022-09-21T13:37:25;102274.53;;;17.20;49.23
9325;BME280;4701;51.566;6.776;2022-09-21T13:39:28;102268.19;;;17.29;47.89
9325;BME280;4701;51.566;6.776;2022-09-21T13:41:30;102266.00;;;17.36;47.38
9325;BME280;4701;51.566;6.776;2022-09-21T13:43:59;102261.59;;;17.40;48.07
9325;BME280;4701;51.566;6.776;2022-09-21T13:46:01;102259.69;;;17.51;49.78
9325;BME280;4701;51.566;6.776;2022-09-21T13:48:12;102261.88;;;17.49;48.37
9325;BME280;4701;51.566;6.776;2022-09-21T13:50:27;102256.63;;;17.48;45.88
9325;BME280;4701;51.566;6.776;2022-09-21T13:52:36;102257.16;;;17.45;46.43
9325;BME280;4701;51.566;6.776;2022-09-21T13:54:49;102254.41;;;17.45;45.68
9325;BME280;4701;51.566;6.776;2022-09-21T13:57:00;102252.78;;;17.49;45.07
9325;BME280;4701;51.566;6.776;2022-09-21T13:59:04;102252.50;;;17.55;46.16
9325;BME280;4701;51.566;6.776;2022-09-21T14:01:14;102246.72;;;17.62;46.79
9325;BME280;4701;51.566;6.776;2022-09-21T14:03:21;102247.53;;;17.62;47.56
9325;BME280;4701;51.566;6.776;2022-09-21T14:05:28;102248.91;;;17.55;47.72
9325;BME280;4701;51.566;6.776;2022-09-21T14:07:32;102243.09;;;17.61;47.59
9325;BME280;4701;51.566;6.776;2022-09-21T14:09:39;102240.38;;;17.71;46.90
9325;BME280;4701;51.566;6.776;2022-09-21T14:11:44;102243.66;;;17.84;47.07
9325;BME280;4701;51.566;6.776;2022-09-21T14:14:01;102237.84;;;17.90;47.04
9325;BME280;4701;51.566;6.776;2022-09-21T14:16:26;102239.78;;;17.95;45.46
9325;BME280;4701;51.566;6.776;2022-09-21T14:18:48;102232.88;;;17.92;46.83
9325;BME280;4701;51.566;6.776;2022-09-21T14:21:08;102234.31;;;17.74;47.51
9325;BME280;4701;51.566;6.776;2022-09-21T14:23:25;102238.19;;;17.63;47.83
9325;BME280;4701;51.566;6.776;2022-09-21T14:25:45;102240.38;;;17.46;48.39
9325;BME280;4701;51.566;6.776;2022-09-21T14:27:50;102242.31;;;17.30;49.83
9325;BME280;4701;51.566;6.776;2022-09-21T14:29:54;102235.13;;;17.19;50.16
9325;BME280;4701;51.566;6.776;2022-09-21T14:32:00;102239.53;;;17.05;50.63
9325;BME280;4701;51.566;6.776;2022-09-21T14:34:05;102240.34;;;16.95;50.90
9325;BME280;4701;51.566;6.776;2022-09-21T14:36:17;102233.16;;;16.84;51.50
9325;BME280;4701;51.566;6.776;2022-09-21T14:38:24;102234.50;;;16.77;52.14
9325;BME280;4701;51.566;6.776;2022-09-21T14:40:29;102230.38;;;16.69;52.63
9325;BME280;4701;51.566;6.776;2022-09-21T14:42:32;102233.63;;;16.56;54.46
9325;BME280;4701;51.566;6.776;2022-09-21T14:44:37;102231.09;;;16.44;54.93
9325;BME280;4701;51.566;6.776;2022-09-21T14:46:49;102231.88;;;16.35;55.67
9325;BME280;4701;51.566;6.776;2022-09-21T14:49:02;102221.97;;;16.28;56.46
9325;BME280;4701;51.566;6.776;2022-09-21T14:51:14;102225.78;;;16.22;58.14
9325;BME280;4701;51.566;6.776;2022-09-21T14:53:33;102226.56;;;16.13;59.27
9325;BME280;4701;51.566;6.776;2022-09-21T14:55:55;102222.69;;;16.09;60.15
9325;BME280;4701;51.566;6.776;2022-09-21T14:58:18;102220.84;;;16.24;61.27
9325;BME280;4701;51.566;6.776;2022-09-21T15:00:37;102215.16;;;16.46;60.25
9325;BME280;4701;51.566;6.776;2022-09-21T15:02:41;102215.44;;;16.60;54.07
9325;BME280;4701;51.566;6.776;2022-09-21T15:04:53;102212.19;;;16.68;51.23
9325;BME280;4701;51.566;6.776;2022-09-21T15:07:06;102210.28;;;16.63;52.14
9325;BME280;4701;51.566;6.776;2022-09-21T15:09:40;102206.34;;;16.59;54.40
9325;BME280;4701;51.566;6.776;2022-09-21T15:12:08;102206.06;;;16.51;54.90
9325;BME280;4701;51.566;6.776;2022-09-21T15:14:17;102206.59;;;16.43;55.50
9325;BME280;4701;51.566;6.776;2022-09-21T15:16:28;102206.81;;;16.26;56.31
9325;BME280;4701;51.566;6.776;2022-09-21T15:18:40;102199.06;;;16.13;57.38
9325;BME280;4701;51.566;6.776;2022-09-21T15:20:42;102197.09;;;16.03;57.55
9325;BME280;4701;51.566;6.776;2022-09-21T15:22:44;102193.81;;;16.11;56.82
9325;BME280;4701;51.566;6.776;2022-09-21T15:24:50;102195.53;;;16.22;57.19
9325;BME280;4701;51.566;6.776;2022-09-21T15:26:59;102193.59;;;16.23;56.06
9325;BME280;4701;51.566;6.776;2022-09-21T15:29:04;102201.28;;;16.21;56.20
9325;BME280;4701;51.566;6.776;2022-09-21T15:31:07;102198.03;;;16.24;56.63
9325;BME280;4701;51.566;6.776;2022-09-21T15:33:11;102189.75;;;16.24;57.21
9325;BME280;4701;51.566;6.776;2022-09-21T15:35:17;102190.34;;;16.31;57.23
9325;BME280;4701;51.566;6.776;2022-09-21T15:37:19;102188.97;;;16.39;58.76
9325;BME280;4701;51.566;6.776;2022-09-21T15:39:25;102193.91;;;16.32;58.99
9325;BME280;4701;51.566;6.776;2022-09-21T15:41:39;102188.63;;;16.20;59.46
9325;BME280;4701;51.566;6.776;2022-09-21T15:43:41;102187.53;;;16.16;59.12
9325;BME280;4701;51.566;6.776;2022-09-21T15:45:52;102186.94;;;16.09;58.68
9325;BME280;4701;51.566;6.776;2022-09-21T15:47:55;102183.34;;;16.03;57.47
9325;BME280;4701;51.566;6.776;2022-09-21T15:49:59;102180.00;;;15.96;57.63
9325;BME280;4701;51.566;6.776;2022-09-21T15:52:04;102182.13;;;15.84;59.06
9325;BME280;4701;51.566;6.776;2022-09-21T15:54:30;102186.13;;;15.56;60.90
9325;BME280;4701;51.566;6.776;2022-09-21T15:56:35;102177.47;;;15.42;61.47
9325;BME280;4701;51.566;6.776;2022-09-21T15:58:40;102177.13;;;15.34;60.54
9325;BME280;4701;51.566;6.776;2022-09-21T16:00:50;102177.34;;;15.27;60.63
9325;BME280;4701;51.566;6.776;2022-09-21T16:03:03;102180.28;;;15.15;61.66
9325;BME280;4701;51.566;6.776;2022-09-21T16:05:12;102184.03;;;15.04;62.96
9325;BME280;4701;51.566;6.776;2022-09-21T16:07:24;102172.66;;;14.91;65.54
9325;BME280;4701;51.566;6.776;2022-09-21T16:09:35;102178.38;;;14.84;66.89
9325;BME280;4701;51.566;6.776;2022-09-21T16:11:38;102182.44;;;14.82;68.34
9325;BME280;4701;51.566;6.776;2022-09-21T16:13:41;102180.13;;;14.95;68.95
9325;BME280;4701;51.566;6.776;2022-09-21T16:16:03;102181.78;;;14.96;69.58
9325;BME280;4701;51.566;6.776;2022-09-21T16:18:05;102182.66;;;15.07;69.40
9325;BME280;4701;51.566;6.776;2022-09-21T16:20:36;102181.09;;;15.16;69.74
9325;BME280;4701;51.566;6.776;2022-09-21T16:22:40;102178.19;;;15.28;69.30
9325;BME280;4701;51.566;6.776;2022-09-21T16:24:49;102179.34;;;15.37;69.08
9325;BME280;4701;51.566;6.776;2022-09-21T16:26:56;102180.53;;;15.46;68.57
9325;BME280;4701;51.566;6.776;2022-09-21T16:29:17;102175.03;;;15.46;67.85
9325;BME280;4701;51.566;6.776;2022-09-21T16:31:23;102182.53;;;15.56;67.95
9325;BME280;4701;51.566;6.776;2022-09-21T16:33:40;102183.28;;;15.51;67.72